Time;durP1;ratioP1;P1;durP2;ratioP2;P2;SDS_P1;SDS_P2;PMS_P1;PMS_P2;Temp;Humidity;BMP_temperature;BMP_pressure;BME280_temperature;BME280_humidity;BME280_pressure;Samples;Min_cycle;Max_cycle;Signal;HPM_P1;HPM_P2
2023/09/07 05:54:30;;;;;;;;;11.33;11.33;;;;;23.56;55.70;101291.38;5077980;27;45717;-72
2023/09/07 05:56:55;;;;;;;;;11.00;11.00;;;;;23.68;55.20;101295.56;5068644;28;45421;-71
2023/09/07 05:59:20;;;;;;;;;9.33;9.33;;;;;23.84;54.95;101291.28;5064388;28;45658;-71
2023/09/07 06:01:46;;;;;;;;;12.00;12.00;;;;;24.03;54.47;101286.66;5065743;28;45320;-71
2023/09/07 06:04:11;;;;;;;;;10.67;10.00;;;;;24.21;53.96;101286.63;5060499;28;46695;-72
2023/09/07 06:06:36;;;;;;;;;14.00;10.33;;;;;24.41;53.88;101287.28;5067412;28;45482;-71
2023/09/07 06:45:02;;;;;;;;;18.00;13.67;;;;;24.90;53.16;101303.94;5066999;27;45448;-71
2023/09/07 06:47:28;;;;;;;;;13.67;12.67;;;;;24.96;52.20;101304.16;5041596;28;46859;-71
2023/09/07 06:49:54;;;;;;;;;17.00;12.33;;;;;25.07;52.22;101303.00;5044560;28;45793;-72
2023/09/07 06:52:19;;;;;;;;;13.67;13.67;;;;;25.21;52.05;101314.22;5045537;28;45481;-72
2023/09/07 06:54:44;;;;;;;;;15.00;15.00;;;;;25.33;51.61;101306.59;5031566;28;46343;-73
2023/09/07 06:57:09;;;;;;;;;12.00;11.67;;;;;25.47;50.77;101307.81;5045745;28;45481;-72
2023/09/07 06:59:35;;;;;;;;;14.00;12.00;;;;;25.60;50.91;101310.94;5047879;28;45678;-72
2023/09/07 07:02:01;;;;;;;;;14.33;12.67;;;;;25.76;49.96;101314.66;5046916;28;45411;-71
2023/09/07 07:04:26;;;;;;;;;13.33;12.33;;;;;25.89;49.98;101309.56;5047538;28;46192;-71
2023/09/07 07:06:51;;;;;;;;;15.33;13.67;;;;;26.01;50.00;101301.06;5046664;28;45488;-72
2023/09/07 07:09:17;;;;;;;;;12.00;12.00;;;;;26.14;49.25;101314.13;5037226;28;51273;-72
2023/09/07 07:11:42;;;;;;;;;13.67;11.67;;;;;26.26;49.51;101304.63;5048259;28;45466;-71
2023/09/07 07:14:09;;;;;;;;;11.00;9.33;;;;;26.39;48.93;101301.34;5047550;28;45477;-71
2023/09/07 07:16:34;;;;;;;;;13.33;12.00;;;;;26.50;48.26;101304.72;5047762;28;45535;-72
2023/09/07 07:18:59;;;;;;;;;16.33;14.00;;;;;26.59;48.23;101306.38;5046917;28;45599;-76
2023/09/07 07:21:25;;;;;;;;;13.67;12.00;;;;;26.70;48.59;101307.88;5047027;28;45460;-75
2023/09/07 07:23:50;;;;;;;;;10.33;7.67;;;;;26.78;48.23;101305.13;5048917;28;45550;-76
2023/09/07 07:26:16;;;;;;;;;13.00;11.00;;;;;26.88;47.37;101313.06;5048732;28;45600;-72
2023/09/07 07:28:41;;;;;;;;;13.33;13.33;;;;;26.95;47.80;101307.78;5039391;28;45631;-73
2023/09/07 07:31:09;;;;;;;;;12.67;10.00;;;;;27.01;47.59;101308.97;5047735;28;45435;-73
2023/09/07 07:33:34;;;;;;;;;12.00;10.00;;;;;27.10;47.10;101308.72;5045264;28;45591;-73
2023/09/07 07:36:00;;;;;;;;;10.33;10.33;;;;;27.16;46.65;101307.16;5045686;28;45647;-73
2023/09/07 07:38:25;;;;;;;;;10.00;10.00;;;;;27.20;46.32;101308.50;5047811;28;45433;-72
2023/09/07 07:40:52;;;;;;;;;10.33;9.67;;;;;27.26;46.16;101308.81;5046246;28;45557;-73
2023/09/07 07:43:18;;;;;;;;;13.67;12.00;;;;;27.28;46.42;101313.06;5035366;28;46313;-73
2023/09/07 07:45:43;;;;;;;;;12.00;11.00;;;;;27.30;46.54;101302.81;5048042;28;45792;-72
2023/09/07 07:48:08;;;;;;;;;13.00;13.00;;;;;27.39;45.70;101316.38;5038660;28;45937;-76
2023/09/07 07:50:40;;;;;;;;;11.67;11.67;;;;;27.44;45.87;101308.50;5036972;28;46355;-76
2023/09/07 07:53:06;;;;;;;;;12.67;12.67;;;;;27.48;45.26;101318.88;5036330;28;46293;-72
2023/09/07 07:55:38;;;;;;;;;8.00;8.00;;;;;27.50;45.79;101321.41;5030090;28;45560;-73
2023/09/07 07:58:08;;;;;;;;;12.00;11.33;;;;;27.53;45.85;101323.78;5030794;28;45599;-72
2023/09/07 08:00:38;;;;;;;;;11.00;11.00;;;;;27.54;45.31;101319.19;5029347;28;46128;-74
2023/09/07 08:03:05;;;;;;;;;11.67;11.67;;;;;27.55;45.53;101310.81;5031015;28;45506;-71
2023/09/07 08:05:34;;;;;;;;;11.00;11.00;;;;;27.61;45.30;101312.84;5034556;28;45567;-71
2023/09/07 08:07:59;;;;;;;;;10.00;10.00;;;;;27.69;45.10;101316.53;5034010;28;45429;-71
2023/09/07 08:10:25;;;;;;;;;12.33;12.33;;;;;27.73;45.57;101313.28;5025964;28;45449;-71
2023/09/07 08:12:54;;;;;;;;;11.00;9.00;;;;;27.79;45.09;101314.38;5016564;28;46195;-71
2023/09/07 08:15:22;;;;;;;;;12.00;11.67;;;;;27.86;44.76;101318.09;5029167;28;45448;-72
2023/09/07 08:17:48;;;;;;;;;12.00;12.00;;;;;27.87;44.99;101311.59;5032977;28;45782;-71
2023/09/07 08:20:13;;;;;;;;;11.33;10.33;;;;;27.93;44.38;101322.81;5032477;28;45788;-71
2023/09/07 08:22:41;;;;;;;;;8.67;8.67;;;;;27.96;43.99;101322.44;5033167;28;46515;-71
2023/09/07 08:25:07;;;;;;;;;13.33;12.67;;;;;27.99;44.54;101322.91;5034023;28;45488;-71
2023/09/07 08:27:33;;;;;;;;;8.67;8.67;;;;;28.02;43.89;101313.50;5030597;28;45452;-74
2023/09/07 08:29:59;;;;;;;;;13.00;11.33;;;;;28.05;44.55;101323.19;5031357;28;55049;-71
2023/09/07 08:32:24;;;;;;;;;12.00;12.00;;;;;28.10;44.56;101313.44;5031751;28;45990;-70
2023/09/07 08:34:50;;;;;;;;;8.67;8.67;;;;;28.14;44.66;101317.50;5035127;28;45534;-71
2023/09/07 08:37:16;;;;;;;;;11.00;11.00;;;;;28.18;44.06;101311.66;5033657;28;45378;-73
2023/09/07 08:39:41;;;;;;;;;10.67;10.67;;;;;28.19;43.71;101316.91;5032676;28;45469;-71
2023/09/07 08:42:06;;;;;;;;;10.00;10.00;;;;;28.20;44.63;101307.69;5025931;28;60988;-72
2023/09/07 08:44:33;;;;;;;;;13.33;13.33;;;;;28.25;44.53;101309.91;5030252;28;45511;-73
2023/09/07 08:47:00;;;;;;;;;12.67;11.33;;;;;28.24;43.92;101306.31;5037858;28;45878;-75
2023/09/07 08:49:26;;;;;;;;;11.67;11.00;;;;;28.28;43.66;101294.00;5030809;28;45472;-74
2023/09/07 08:51:53;;;;;;;;;13.33;12.67;;;;;28.33;44.34;101298.91;5032548;28;45450;-75
2023/09/07 08:54:20;;;;;;;;;9.33;9.33;;;;;28.36;43.50;101298.50;5031604;28;45759;-75
2023/09/07 08:56:47;;;;;;;;;16.33;13.67;;;;;28.45;43.50;101301.16;5031200;28;45403;-74
2023/09/07 08:59:12;;;;;;;;;10.33;10.33;;;;;28.49;43.30;101297.84;5029880;28;45541;-73
2023/09/07 09:01:37;;;;;;;;;10.67;10.67;;;;;28.53;43.31;101303.81;5031549;28;45943;-73
2023/09/07 09:04:03;;;;;;;;;13.50;11.50;;;;;28.55;43.00;101296.25;5030788;28;45605;-73
2023/09/07 09:06:29;;;;;;;;;8.00;8.00;;;;;28.57;43.37;101287.88;5026455;28;45468;-75
2023/09/07 09:08:56;;;;;;;;;10.00;10.00;;;;;28.60;43.16;101287.50;5029858;28;45589;-72
2023/09/07 09:11:23;;;;;;;;;11.67;10.33;;;;;28.61;43.61;101289.19;5030931;28;46429;-72
2023/09/07 09:13:50;;;;;;;;;12.33;12.33;;;;;28.61;42.90;101292.75;5031962;28;45360;-73
2023/09/07 09:16:16;;;;;;;;;14.00;9.67;;;;;28.62;42.93;101285.44;5028282;28;45516;-72
2023/09/07 09:18:56;;;;;;;;;14.00;11.33;;;;;28.63;43.32;101287.09;5029017;28;45452;-72
2023/09/07 09:21:26;;;;;;;;;12.00;10.00;;;;;28.65;43.00;101291.34;5045554;28;46303;-75
2023/09/07 09:23:54;;;;;;;;;11.00;10.00;;;;;28.65;43.32;101288.63;5032116;28;45402;-73
2023/09/07 09:26:20;;;;;;;;;15.33;12.33;;;;;28.71;42.94;101297.94;5028890;28;45410;-74
2023/09/07 09:28:46;;;;;;;;;6.00;6.00;;;;;28.72;43.10;101291.44;5023549;28;45443;-74
2023/09/07 09:31:12;;;;;;;;;9.33;9.33;;;;;28.78;43.24;101301.59;5028221;28;45457;-74
2023/09/07 09:33:39;;;;;;;;;11.67;10.33;;;;;28.81;43.03;101303.09;5029963;28;45694;-74
2023/09/07 09:36:06;;;;;;;;;11.00;11.00;;;;;28.86;43.22;101302.53;5031879;28;45436;-74
2023/09/07 09:38:32;;;;;;;;;9.67;9.67;;;;;28.87;43.21;101299.63;5031182;28;45471;-74
2023/09/07 09:40:58;;;;;;;;;10.33;10.33;;;;;28.88;43.42;101297.72;5030529;28;45379;-73
2023/09/07 09:43:25;;;;;;;;;12.67;10.33;;;;;28.93;42.83;101304.34;5029191;28;45642;-73
2023/09/07 09:45:52;;;;;;;;;11.33;10.00;;;;;28.96;43.31;101296.78;5032467;28;45717;-74
2023/09/07 09:48:19;;;;;;;;;12.33;10.33;;;;;28.97;43.42;101301.22;5035819;28;45461;-73
2023/09/07 09:50:46;;;;;;;;;10.00;10.00;;;;;28.97;42.67;101293.03;5034837;28;47207;-72
2023/09/07 09:53:15;;;;;;;;;12.33;12.33;;;;;28.97;42.59;101296.59;5035554;28;45324;-72
2023/09/07 09:55:41;;;;;;;;;10.00;10.00;;;;;29.01;43.13;101297.06;5030371;28;45482;-72
2023/09/07 09:58:06;;;;;;;;;14.00;12.33;;;;;29.02;42.75;101296.84;5031554;28;46141;-72
2023/09/07 10:00:37;;;;;;;;;14.00;14.00;;;;;29.02;42.88;101291.38;5029422;28;46143;-73
2023/09/07 10:03:11;;;;;;;;;12.33;11.33;;;;;29.05;42.80;101295.63;5031915;28;45411;-72
2023/09/07 10:05:36;;;;;;;;;14.00;11.67;;;;;29.08;43.12;101291.66;5032459;28;45489;-72
2023/09/07 10:08:06;;;;;;;;;12.00;12.00;;;;;29.09;42.30;101287.91;5029472;28;45413;-72
2023/09/07 10:10:37;;;;;;;;;12.00;12.00;;;;;29.09;42.77;101285.19;5033602;28;46316;-72
2023/09/07 10:13:03;;;;;;;;;13.00;11.33;;;;;29.11;42.65;101286.69;5030995;28;45406;-72
2023/09/07 10:15:29;;;;;;;;;10.67;10.33;;;;;29.12;42.82;101293.81;5027250;28;46968;-72
2023/09/07 10:18:16;;;;;;;;;12.33;12.33;;;;;29.14;42.80;101286.28;5027788;28;45972;-72
2023/09/07 10:20:52;;;;;;;;;9.00;9.00;;;;;29.16;43.08;101289.66;5029201;28;45472;-72
2023/09/07 10:23:18;;;;;;;;;12.33;11.33;;;;;29.15;42.70;101282.53;5029611;28;45466;-72
2023/09/07 10:25:48;;;;;;;;;11.33;9.00;;;;;29.18;42.74;101287.56;5027987;28;45490;-72
2023/09/07 10:28:25;;;;;;;;;11.67;11.00;;;;;29.20;42.77;101287.38;5021625;28;45625;-72
2023/09/07 10:31:05;;;;;;;;;11.00;11.00;;;;;29.22;42.71;101287.19;5027552;28;46920;-69
2023/09/07 10:33:34;;;;;;;;;11.00;10.00;;;;;29.24;43.00;101290.56;5021362;28;45470;-72
2023/09/07 10:36:01;;;;;;;;;12.67;12.67;;;;;29.22;43.50;101281.72;5025144;28;45494;-70
2023/09/07 10:38:27;;;;;;;;;13.00;10.33;;;;;29.19;43.58;101286.53;5022232;28;45524;-72
2023/09/07 10:41:00;;;;;;;;;12.67;12.67;;;;;29.17;43.85;101280.44;5015094;28;46513;-72
2023/09/07 10:43:30;;;;;;;;;11.67;11.33;;;;;29.11;43.62;101269.41;5024198;28;45586;-72
2023/09/07 10:45:56;;;;;;;;;12.67;12.67;;;;;29.15;44.08;101276.19;5015480;28;45554;-73
2023/09/07 10:48:28;;;;;;;;;12.67;12.00;;;;;29.12;43.54;101277.44;5025198;28;45443;-73
2023/09/07 10:50:54;;;;;;;;;13.00;12.00;;;;;29.11;43.53;101275.75;5016418;28;45926;-71
2023/09/07 10:53:31;;;;;;;;;12.33;12.33;;;;;29.11;43.85;101272.16;5029503;28;45530;-71
2023/09/07 10:55:59;;;;;;;;;11.67;11.67;;;;;29.12;43.23;101268.38;5027351;28;45640;-72
2023/09/07 10:58:30;;;;;;;;;13.67;13.67;;;;;29.11;43.94;101270.28;5030910;28;45541;-72
2023/09/07 11:00:56;;;;;;;;;13.33;12.33;;;;;29.10;43.72;101260.38;5029667;28;45976;-72
2023/09/07 11:03:21;;;;;;;;;10.67;10.67;;;;;29.10;43.71;101267.72;5029298;28;45389;-72
2023/09/07 11:05:48;;;;;;;;;11.67;11.67;;;;;29.10;44.05;101262.28;5029562;28;45522;-72
2023/09/07 11:08:14;;;;;;;;;10.67;10.67;;;;;29.11;43.94;101262.06;5027578;28;45555;-72
2023/09/07 11:10:39;;;;;;;;;13.33;11.33;;;;;29.11;43.53;101262.06;5028130;28;48635;-72
2023/09/07 11:13:05;;;;;;;;;11.00;11.00;;;;;29.12;43.82;101262.91;5025376;28;45454;-74
2023/09/07 11:15:33;;;;;;;;;11.00;11.00;;;;;29.13;43.76;101256.41;5030397;28;45391;-73
2023/09/07 11:18:05;;;;;;;;;13.00;13.00;;;;;29.15;43.68;101263.38;5029426;28;45473;-72
2023/09/07 11:20:31;;;;;;;;;13.67;11.33;;;;;29.14;43.77;101260.84;5028541;28;45428;-73
2023/09/07 11:22:56;;;;;;;;;12.67;12.67;;;;;29.16;44.12;101265.06;5027617;28;45565;-74
2023/09/07 11:44:24;;;;;;;;;12.00;10.67;;;;;27.93;45.27;101239.09;5087718;27;45407;-72
2023/09/07 11:46:49;;;;;;;;;9.00;9.00;;;;;27.91;46.02;101237.59;5102062;27;49468;-72
2023/09/07 11:49:14;;;;;;;;;13.67;12.33;;;;;27.94;45.41;101232.59;5089472;27;45489;-72
2023/09/07 11:51:40;;;;;;;;;9.33;8.00;;;;;27.99;45.97;101229.31;5086874;27;45543;-73
2023/09/07 11:54:05;;;;;;;;;13.33;13.33;;;;;28.06;45.99;101237.59;5092778;27;46956;-72
2023/09/07 11:56:30;;;;;;;;;11.67;11.67;;;;;28.13;45.92;101236.66;5083615;27;45390;-75
2023/09/07 11:58:56;;;;;;;;;9.67;9.67;;;;;28.22;46.13;101228.38;5087623;27;45917;-73
2023/09/07 12:01:21;;;;;;;;;13.00;13.00;;;;;28.27;46.00;101221.34;5076809;27;45449;-73
2023/09/07 12:03:47;;;;;;;;;12.00;11.00;;;;;28.40;45.53;101220.69;5087494;27;46288;-74
2023/09/07 12:06:13;;;;;;;;;14.33;12.00;;;;;28.49;45.96;101229.59;5082313;27;45369;-71
2023/09/07 12:08:42;;;;;;;;;11.67;10.67;;;;;28.56;45.86;101223.38;5088782;27;45506;-71
2023/09/07 12:11:08;;;;;;;;;9.67;9.67;;;;;28.60;45.82;101216.50;5075644;27;45553;-72
2023/09/07 12:13:33;;;;;;;;;10.67;10.67;;;;;28.66;45.18;101218.47;5078740;27;46041;-72
2023/09/07 12:15:58;;;;;;;;;7.00;7.00;;;;;28.72;45.84;101217.69;5082351;27;52859;-72
2023/09/07 12:18:23;;;;;;;;;10.67;8.67;;;;;28.77;45.63;101223.41;5080910;27;56003;-73
2023/09/07 12:20:49;;;;;;;;;12.00;11.67;;;;;28.82;45.60;101213.81;5087976;27;45428;-74
2023/09/07 12:23:14;;;;;;;;;8.67;8.67;;;;;28.86;45.45;101215.97;5088352;27;46225;-76
2023/09/07 12:25:39;;;;;;;;;13.33;11.00;;;;;28.91;45.44;101213.53;5089441;27;45478;-77
2023/09/07 12:28:05;;;;;;;;;11.67;10.00;;;;;28.95;45.47;101224.91;5089701;27;45400;-76
2023/09/07 12:30:30;;;;;;;;;11.00;11.00;;;;;29.00;45.00;101225.19;5076505;27;45487;-71
2023/09/07 12:32:55;;;;;;;;;11.67;11.67;;;;;29.03;45.10;101230.25;5078869;27;51562;-72
2023/09/07 12:35:21;;;;;;;;;9.33;9.33;;;;;29.05;45.10;101221.84;5084066;27;56278;-72
2023/09/07 12:37:46;;;;;;;;;12.00;11.00;;;;;29.04;45.04;101217.44;5069308;27;45555;-72
2023/09/07 12:40:12;;;;;;;;;10.33;10.00;;;;;29.11;45.26;101221.09;5063816;27;45698;-72
2023/09/07 12:42:47;;;;;;;;;11.00;11.00;;;;;29.12;45.14;101219.19;5081813;27;47297;-72
2023/09/07 12:45:14;;;;;;;;;12.33;12.33;;;;;29.16;45.15;101221.34;5083556;27;45422;-72
2023/09/07 12:47:40;;;;;;;;;11.33;10.00;;;;;29.20;44.87;101219.06;5076169;27;45582;-71
2023/09/07 12:50:06;;;;;;;;;9.33;9.33;;;;;29.24;44.71;101212.16;5080293;27;45610;-73
2023/09/07 12:52:35;;;;;;;;;13.67;11.00;;;;;29.26;44.67;101204.59;5085547;27;46731;-73
2023/09/07 12:55:00;;;;;;;;;11.00;11.00;;;;;29.27;44.97;101200.84;5062796;27;45435;-74
2023/09/07 12:57:26;;;;;;;;;13.33;12.67;;;;;29.33;45.07;101204.66;5062564;27;45581;-74
2023/09/07 12:59:51;;;;;;;;;10.33;10.00;;;;;29.37;44.64;101210.56;5072739;28;51780;-75
2023/09/07 13:02:16;;;;;;;;;8.00;8.00;;;;;29.40;44.95;101207.47;5069258;27;46537;-73
2023/09/07 13:04:42;;;;;;;;;11.67;11.67;;;;;29.41;44.83;101200.94;5056772;27;45552;-74
2023/09/07 13:07:07;;;;;;;;;11.33;10.00;;;;;29.41;44.48;101196.31;5060324;28;51215;-75
2023/09/07 13:09:32;;;;;;;;;10.00;8.67;;;;;29.45;44.31;101196.78;5099714;27;50475;-75
2023/09/07 13:11:58;;;;;;;;;11.00;11.00;;;;;29.48;45.04;101196.38;5071315;27;46238;-75
2023/09/07 13:14:23;;;;;;;;;12.00;10.00;;;;;29.49;44.36;101189.00;5072309;28;47519;-75
2023/09/07 13:16:50;;;;;;;;;10.00;10.00;;;;;29.50;44.53;101186.09;5059296;27;46025;-75
2023/09/07 13:19:15;;;;;;;;;10.67;10.67;;;;;29.52;44.59;101189.50;5067837;28;45710;-75
2023/09/07 13:21:41;;;;;;;;;9.33;9.33;;;;;29.54;44.78;101186.56;5068369;28;48122;-72
2023/09/07 13:24:06;;;;;;;;;10.00;9.00;;;;;29.55;44.71;101183.63;5064598;27;45469;-71
2023/09/07 13:26:32;;;;;;;;;10.00;9.33;;;;;29.54;44.39;101187.41;5064827;27;45443;-71
2023/09/07 13:28:57;;;;;;;;;8.67;8.67;;;;;29.54;44.69;101190.16;5064096;28;45521;-70
2023/09/07 13:31:23;;;;;;;;;9.00;9.00;;;;;29.53;44.46;101182.13;5067736;27;45620;-71
2023/09/07 13:33:49;;;;;;;;;12.33;11.33;;;;;29.55;44.82;101180.06;5067070;27;45816;-71
2023/09/07 13:36:14;;;;;;;;;9.00;9.00;;;;;29.55;44.96;101188.25;5071907;27;45453;-72
2023/09/07 13:38:41;;;;;;;;;11.00;9.00;;;;;29.56;44.77;101185.34;5070575;27;45582;-71
2023/09/07 13:41:06;;;;;;;;;11.67;11.33;;;;;29.58;45.03;101171.44;5073005;27;46417;-73
2023/09/07 13:43:31;;;;;;;;;10.00;10.00;;;;;29.59;44.76;101175.88;5058475;27;45327;-70
2023/09/07 13:45:57;;;;;;;;;10.33;10.33;;;;;29.61;44.83;101167.47;5073756;27;45474;-73
2023/09/07 13:48:22;;;;;;;;;8.33;8.33;;;;;29.63;44.84;101171.69;5067258;27;45439;-70
2023/09/07 13:50:48;;;;;;;;;9.67;8.00;;;;;29.63;44.55;101166.22;5072158;27;59322;-71
2023/09/07 13:53:14;;;;;;;;;8.00;8.00;;;;;29.69;44.91;101173.63;5073656;27;45462;-71
2023/09/07 13:55:41;;;;;;;;;9.67;9.00;;;;;29.74;45.30;101166.72;5072835;27;45452;-71
2023/09/07 13:58:06;;;;;;;;;8.00;7.67;;;;;29.76;45.07;101167.34;5073057;27;45406;-71
2023/09/07 14:00:32;;;;;;;;;8.67;8.00;;;;;29.78;45.10;101168.00;5071478;28;46452;-74
2023/09/07 14:02:57;;;;;;;;;8.67;8.33;;;;;29.78;45.12;101168.00;5070120;28;56865;-75
2023/09/07 14:05:22;;;;;;;;;8.00;8.00;;;;;29.79;45.38;101164.22;5070947;27;45356;-75
2023/09/07 14:07:47;;;;;;;;;8.67;8.67;;;;;29.78;45.68;101160.63;5063883;27;50384;-73
2023/09/07 14:10:13;;;;;;;;;10.67;10.00;;;;;29.80;45.34;101153.06;5060063;27;46442;-72
2023/09/07 14:12:39;;;;;;;;;13.00;11.00;;;;;29.82;45.36;101151.00;5071859;27;45997;-72
2023/09/07 14:15:04;;;;;;;;;9.00;9.00;;;;;29.85;45.15;101152.47;5062740;28;49742;-71
2023/09/07 14:17:30;;;;;;;;;7.67;7.67;;;;;29.88;45.26;101151.22;5070142;27;45427;-71
2023/09/07 14:19:55;;;;;;;;;6.67;6.67;;;;;29.87;45.63;101150.38;5071936;28;46462;-73
2023/09/07 14:22:20;;;;;;;;;7.67;7.67;;;;;29.85;45.43;101145.13;5072476;27;45265;-72
2023/09/07 14:24:46;;;;;;;;;9.67;9.67;;;;;29.88;45.83;101151.22;5072541;27;45410;-73
2023/09/07 14:27:11;;;;;;;;;7.67;7.67;;;;;29.88;45.76;101148.50;5071424;28;46843;-72
2023/09/07 14:29:36;;;;;;;;;8.00;8.00;;;;;29.89;45.67;101150.16;5069142;27;55698;-69
2023/09/07 14:32:04;;;;;;;;;10.00;9.33;;;;;29.91;45.06;101153.56;5060381;27;45510;-70
2023/09/07 14:34:29;;;;;;;;;9.00;8.67;;;;;29.90;44.87;101147.25;5069742;28;45551;-73
2023/09/07 14:36:55;;;;;;;;;8.33;8.33;;;;;29.91;44.77;101156.31;5070049;27;45457;-68
2023/09/07 14:39:23;;;;;;;;;10.67;10.67;;;;;29.90;44.91;101147.25;5072788;27;45656;-71
2023/09/07 14:41:49;;;;;;;;;7.33;7.33;;;;;29.89;45.00;101151.03;5066309;27;45745;-70
2023/09/07 14:44:15;;;;;;;;;10.67;10.67;;;;;29.88;45.20;101145.75;5063179;27;45756;-71
2023/09/07 14:46:40;;;;;;;;;9.00;9.00;;;;;29.85;45.48;101145.13;5057195;28;45517;-70
2023/09/07 14:49:05;;;;;;;;;7.33;7.33;;;;;29.85;45.37;101147.84;5054136;27;45639;-69
2023/09/07 14:51:31;;;;;;;;;10.33;9.67;;;;;29.86;45.39;101145.94;5059817;27;46180;-71
2023/09/07 14:53:56;;;;;;;;;10.00;10.00;;;;;29.87;45.25;101146.81;5064010;27;45628;-73
2023/09/07 14:56:21;;;;;;;;;7.33;7.33;;;;;29.85;45.51;101147.00;5051689;27;47374;-73
2023/09/07 14:58:47;;;;;;;;;7.00;7.00;;;;;29.93;45.68;101151.47;5066536;27;45477;-73
2023/09/07 15:01:12;;;;;;;;;8.67;8.67;;;;;29.95;45.56;101146.63;5057721;28;47123;-73
2023/09/07 15:03:40;;;;;;;;;6.67;6.67;;;;;29.96;45.85;101149.16;5060389;28;45850;-74
2023/09/07 15:06:06;;;;;;;;;7.00;7.00;;;;;29.98;45.98;101149.81;5058476;27;45536;-74
2023/09/07 15:08:31;;;;;;;;;10.33;8.33;;;;;29.98;45.57;101149.81;5059705;28;47818;-72
2023/09/07 15:10:57;;;;;;;;;8.00;8.00;;;;;30.00;45.35;101140.56;5067053;27;45662;-72
2023/09/07 15:13:22;;;;;;;;;7.00;7.00;;;;;30.01;46.27;101142.22;5070020;28;45414;-73
2023/09/07 15:15:47;;;;;;;;;7.33;7.33;;;;;30.02;45.88;101144.78;5064061;28;45595;-72
2023/09/07 15:18:13;;;;;;;;;6.33;6.33;;;;;30.03;45.93;101149.19;5064052;27;45577;-72
2023/09/07 15:20:38;;;;;;;;;9.00;8.00;;;;;30.05;46.38;101146.25;5060015;27;45512;-71
2023/09/07 15:23:03;;;;;;;;;4.67;4.67;;;;;30.05;46.41;101140.78;5064058;28;45773;-72
2023/09/07 15:25:30;;;;;;;;;8.33;8.33;;;;;30.10;46.42;101149.22;5057873;28;45498;-71
2023/09/07 15:27:55;;;;;;;;;10.33;9.33;;;;;30.09;45.98;101145.63;5064560;28;45747;-72
2023/09/07 15:30:23;;;;;;;;;11.33;11.33;;;;;30.08;45.39;101141.22;5056984;27;45922;-71
2023/09/07 15:32:48;;;;;;;;;10.33;9.00;;;;;30.11;45.40;101148.19;5059273;28;45455;-71
2023/09/07 15:35:13;;;;;;;;;10.00;10.00;;;;;30.10;45.09;101151.97;5062522;27;45479;-71
2023/09/07 15:37:41;;;;;;;;;11.33;11.33;;;;;30.07;44.96;101145.00;5054679;27;46150;-69
2023/09/07 15:40:07;;;;;;;;;7.67;7.67;;;;;30.06;44.96;101143.31;5053471;28;45537;-69
2023/09/07 15:42:33;;;;;;;;;10.67;9.33;;;;;30.03;44.86;101140.16;5054194;27;45739;-70
2023/09/07 15:44:58;;;;;;;;;10.00;10.00;;;;;30.01;44.85;101142.22;5061226;28;49715;-69
2023/09/07 15:47:24;;;;;;;;;10.33;9.67;;;;;29.97;44.66;101134.44;5063855;27;46014;-70
2023/09/07 15:49:51;;;;;;;;;10.00;10.00;;;;;29.96;44.81;101131.91;5060255;27;45758;-70
2023/09/07 15:52:20;;;;;;;;;12.00;10.00;;;;;29.93;44.62;101124.09;5065104;28;45606;-71
2023/09/07 15:54:46;;;;;;;;;9.00;9.00;;;;;29.93;45.04;101133.16;5064782;27;45443;-72
2023/09/07 15:57:11;;;;;;;;;8.33;8.33;;;;;29.91;44.73;101129.78;5070112;27;45834;-69
2023/09/07 15:59:36;;;;;;;;;11.67;9.00;;;;;29.89;44.72;101131.88;5065929;28;46027;-68
2023/09/07 16:02:02;;;;;;;;;9.00;9.00;;;;;29.87;44.93;101131.22;5066740;27;45554;-68
2023/09/07 16:04:27;;;;;;;;;8.00;8.00;;;;;29.87;45.03;101135.84;5068635;28;45830;-69
2023/09/07 16:06:54;;;;;;;;;9.00;8.33;;;;;29.87;45.10;101138.59;5059942;28;46290;-69
2023/09/07 16:09:19;;;;;;;;;5.67;5.67;;;;;29.83;44.80;101138.13;5065658;27;46024;-70
2023/09/07 16:11:44;;;;;;;;;9.33;8.67;;;;;29.83;44.56;101135.41;5066479;27;45486;-70
2023/09/07 16:14:11;;;;;;;;;8.67;8.67;;;;;29.81;44.93;101135.63;5067013;28;45598;-70
2023/09/07 16:16:36;;;;;;;;;8.67;8.00;;;;;29.80;44.84;101130.34;5066381;27;46681;-70
2023/09/07 16:19:01;;;;;;;;;11.33;11.33;;;;;29.77;44.58;101131.59;5071169;28;45419;-70
2023/09/07 16:21:27;;;;;;;;;9.67;8.00;;;;;29.77;44.67;101136.22;5071510;28;45398;-70
2023/09/07 16:23:52;;;;;;;;;9.67;9.67;;;;;29.77;44.89;101134.34;5061876;28;45513;-69
2023/09/07 16:26:18;;;;;;;;;8.67;8.67;;;;;29.76;44.91;101137.25;5068885;27;45876;-70
2023/09/07 16:28:43;;;;;;;;;6.67;6.67;;;;;29.76;44.74;101132.66;5070031;27;45465;-70
2023/09/07 16:31:08;;;;;;;;;10.00;10.00;;;;;29.74;44.94;101126.53;5075472;27;45535;-70
2023/09/07 16:33:34;;;;;;;;;11.00;9.00;;;;;29.74;44.94;101128.44;5064765;27;45493;-71
2023/09/07 16:36:00;;;;;;;;;4.67;4.00;;;;;29.65;44.89;101109.44;5071588;27;46619;-70
2023/09/07 16:38:26;;;;;;;;;8.33;8.33;;;;;29.68;44.97;101119.13;5067722;27;45794;-69
2023/09/07 16:40:51;;;;;;;;;11.00;9.33;;;;;29.71;45.54;101127.78;5060223;27;45617;-72
2023/09/07 16:43:16;;;;;;;;;9.33;9.33;;;;;29.70;45.68;101126.09;5063486;27;45753;-72
2023/09/07 16:45:42;;;;;;;;;12.00;12.00;;;;;29.72;45.92;101131.38;5071574;27;47077;-70
2023/09/07 16:48:07;;;;;;;;;12.33;11.00;;;;;29.72;45.84;101129.44;5066935;27;48149;-71
2023/09/07 16:50:32;;;;;;;;;9.67;9.67;;;;;29.73;46.07;101124.84;5059392;27;45577;-70
2023/09/07 16:52:58;;;;;;;;;12.33;11.00;;;;;29.74;45.77;101123.78;5061292;28;45751;-71
2023/09/07 16:55:23;;;;;;;;;9.00;9.00;;;;;29.77;45.76;101125.28;5068740;28;45928;-71
2023/09/07 16:57:49;;;;;;;;;10.00;10.00;;;;;29.76;46.17;101132.66;5058355;28;45522;-71
2023/09/07 17:00:14;;;;;;;;;13.33;10.00;;;;;29.75;46.02;101128.19;5063851;27;45523;-68
2023/09/07 17:02:39;;;;;;;;;9.33;8.33;;;;;29.78;45.67;101121.47;5062737;27;45540;-72
2023/09/07 17:05:05;;;;;;;;;10.67;8.33;;;;;29.79;45.92;101117.72;5070400;27;46356;-70
2023/09/07 17:07:31;;;;;;;;;7.33;7.33;;;;;29.80;45.94;101114.75;5066214;28;45314;-71
2023/09/07 17:09:56;;;;;;;;;10.67;8.67;;;;;29.80;45.86;101116.69;5060253;27;45722;-70
